Time,TemperatureF,DewpointF,PressureIn,WindDirection,WindDirectionDegrees,WindSpeedMPH,WindSpeedGustMPH,Humidity,HourlyPrecipIn,Conditions,Clouds,dailyrainin,SolarRadiationWatts/m^2,SoftwareType,DateUTC
2013-08-03 00:02:00,56.0,54.0,-100.00,North,0,0.0,1.0,94,0.00,,,0.05,24.000000,,2013-08-03 07:02:00,
2013-08-03 00:12:00,56.0,54.0,-100.00,North,0,0.0,1.0,94,0.00,,,0.05,24.000000,,2013-08-03 07:12:00,
2013-08-03 00:22:00,56.0,54.0,-100.00,North,0,0.0,1.0,94,0.00,,,0.05,24.000000,,2013-08-03 07:22:00,
2013-08-03 00:32:00,56.0,54.0,-100.00,North,0,0.0,1.0,94,0.00,,,0.05,24.000000,,2013-08-03 07:32:00,
2013-08-03 01:02:00,56.0,55.0,-100.00,North,0,0.0,1.0,95,0.00,,,0.05,24.000000,,2013-08-03 08:02:00,
2013-08-03 01:11:00,56.0,55.0,-100.00,North,0,0.0,1.0,95,0.00,,,0.05,24.000000,,2013-08-03 08:11:00,
2013-08-03 01:22:00,56.0,55.0,-100.00,North,0,0.0,1.0,95,0.00,,,0.05,24.000000,,2013-08-03 08:22:00,
2013-08-03 01:32:00,56.0,55.0,-100.00,North,0,0.0,1.0,95,0.00,,,0.05,24.000000,,2013-08-03 08:32:00,
2013-08-03 02:02:00,55.0,54.0,-100.00,North,0,0.0,1.0,95,0.00,,,0.05,24.000000,,2013-08-03 09:02:00,
2013-08-03 02:12:00,55.0,54.0,-100.00,North,0,0.0,1.0,95,0.00,,,0.05,24.000000,,2013-08-03 09:12:00,
2013-08-03 02:22:00,55.0,54.0,-100.00,North,0,0.0,1.0,95,0.00,,,0.05,24.000000,,2013-08-03 09:22:00,
2013-08-03 02:32:00,55.0,54.0,-100.00,North,0,0.0,1.0,95,0.00,,,0.05,24.000000,,2013-08-03 09:32:00,
2013-08-03 03:02:00,55.0,54.0,-100.00,North,0,0.0,0.0,96,0.00,,,0.05,24.000000,,2013-08-03 10:02:00,
2013-08-03 03:12:00,55.0,54.0,-100.00,North,0,0.0,0.0,96,0.00,,,0.05,24.000000,,2013-08-03 10:12:00,
2013-08-03 03:22:00,55.0,54.0,-100.00,North,0,0.0,0.0,96,0.00,,,0.05,24.000000,,2013-08-03 10:22:00,
2013-08-03 03:32:00,55.0,54.0,-100.00,North,0,0.0,0.0,96,0.00,,,0.05,24.000000,,2013-08-03 10:32:00,
2013-08-03 04:02:00,55.0,54.0,-100.00,North,0,0.0,3.0,96,0.00,,,0.05,24.000000,,2013-08-03 11:02:00,
2013-08-03 04:12:00,55.0,54.0,-100.00,North,0,0.0,3.0,96,0.00,,,0.05,24.000000,,2013-08-03 11:12:00,
2013-08-03 04:22:00,55.0,54.0,-100.00,North,0,0.0,3.0,96,0.00,,,0.05,24.000000,,2013-08-03 11:22:00,
2013-08-03 04:32:00,55.0,54.0,-100.00,North,0,0.0,3.0,96,0.00,,,0.05,24.000000,,2013-08-03 11:32:00,
2013-08-03 05:02:00,55.0,54.0,-100.00,North,0,0.0,0.0,96,0.00,,,0.05,24.000000,,2013-08-03 12:02:00,
2013-08-03 05:12:00,55.0,54.0,-100.00,North,0,0.0,0.0,96,0.00,,,0.05,24.000000,,2013-08-03 12:12:00,
2013-08-03 05:22:00,55.0,54.0,-100.00,North,0,0.0,0.0,96,0.00,,,0.05,24.000000,,2013-08-03 12:22:00,
2013-08-03 05:32:00,55.0,54.0,-100.00,North,0,0.0,0.0,96,0.00,,,0.05,24.000000,,2013-08-03 12:32:00,
2013-08-03 06:02:00,55.0,54.0,-100.00,NNE,19,0.0,1.0,96,0.00,,,0.05,24.000000,,2013-08-03 13:02:00,
2013-08-03 06:12:00,55.0,54.0,-100.00,NNE,19,0.0,1.0,96,0.00,,,0.05,24.000000,,2013-08-03 13:12:00,
2013-08-03 06:22:00,55.0,54.0,-100.00,NNE,19,0.0,1.0,96,0.00,,,0.05,24.000000,,2013-08-03 13:22:00,
2013-08-03 06:32:00,55.0,54.0,-100.00,NNE,19,0.0,1.0,96,0.00,,,0.05,24.000000,,2013-08-03 13:32:00,
2013-08-03 07:02:00,55.0,54.0,-100.00,North,0,0.0,1.0,96,0.00,,,0.05,24.000000,,2013-08-03 14:02:00,
2013-08-03 07:12:00,55.0,54.0,-100.00,North,0,0.0,1.0,96,0.00,,,0.05,24.000000,,2013-08-03 14:12:00,
2013-08-03 07:22:00,55.0,54.0,-100.00,North,0,0.0,1.0,96,0.00,,,0.05,24.000000,,2013-08-03 14:22:00,
2013-08-03 07:32:00,55.0,54.0,-100.00,North,0,0.0,1.0,96,0.00,,,0.05,24.000000,,2013-08-03 14:32:00,
2013-08-03 08:12:00,56.0,55.0,-100.00,SW,222,0.0,0.0,95,0.00,,,0.05,24.000000,,2013-08-03 15:12:00,
2013-08-03 08:22:00,56.0,55.0,-100.00,SW,222,0.0,0.0,95,0.00,,,0.05,24.000000,,2013-08-03 15:22:00,
2013-08-03 08:32:00,56.0,55.0,-100.00,SW,222,0.0,0.0,95,0.00,,,0.05,24.000000,,2013-08-03 15:32:00,
2013-08-03 09:02:00,57.0,55.0,-100.00,SE,144,0.0,2.0,93,0.00,,,0.05,23.000000,,2013-08-03 16:02:00,
2013-08-03 09:12:00,57.0,55.0,-100.00,SE,144,0.0,2.0,93,0.00,,,0.05,23.000000,,2013-08-03 16:12:00,
2013-08-03 09:22:00,57.0,55.0,-100.00,SE,144,0.0,2.0,93,0.00,,,0.05,23.000000,,2013-08-03 16:22:00,
2013-08-03 09:33:00,57.0,55.0,-100.00,SE,144,0.0,2.0,93,0.00,,,0.05,23.000000,,2013-08-03 16:33:00,
2013-08-03 10:03:00,59.0,56.0,-100.00,North,0,0.0,1.0,91,0.00,,,0.05,22.000000,,2013-08-03 17:03:00,
2013-08-03 10:12:00,59.0,56.0,-100.00,North,0,0.0,1.0,91,0.00,,,0.05,22.000000,,2013-08-03 17:12:00,
2013-08-03 10:22:00,59.0,56.0,-100.00,North,0,0.0,1.0,91,0.00,,,0.05,22.000000,,2013-08-03 17:22:00,
2013-08-03 10:32:00,59.0,56.0,-100.00,North,0,0.0,1.0,91,0.00,,,0.05,22.000000,,2013-08-03 17:32:00,
2013-08-03 11:02:00,59.0,56.0,-100.00,SE,145,0.0,3.0,89,0.00,,,0.05,21.000000,,2013-08-03 18:02:00,
2013-08-03 11:12:00,59.0,56.0,-100.00,SE,145,0.0,3.0,89,0.00,,,0.05,21.000000,,2013-08-03 18:12:00,
2013-08-03 11:22:00,59.0,56.0,-100.00,SE,145,0.0,3.0,89,0.00,,,0.05,21.000000,,2013-08-03 18:22:00,
2013-08-03 11:32:00,59.0,56.0,-100.00,SE,145,0.0,3.0,89,0.00,,,0.05,21.000000,,2013-08-03 18:32:00,
2013-08-03 12:02:00,60.0,56.0,-100.00,SE,132,3.0,4.0,87,0.00,,,0.02,19.000000,,2013-08-03 19:02:00,
2013-08-03 12:12:00,60.0,56.0,-100.00,SE,132,3.0,4.0,87,0.00,,,0.02,19.000000,,2013-08-03 19:12:00,
2013-08-03 12:22:00,60.0,56.0,-100.00,SE,132,3.0,4.0,87,0.00,,,0.02,19.000000,,2013-08-03 19:22:00,
2013-08-03 12:32:00,60.0,56.0,-100.00,SE,132,3.0,4.0,87,0.00,,,0.02,19.000000,,2013-08-03 19:32:00,
2013-08-03 13:02:00,60.0,56.0,-100.00,SE,134,3.0,5.0,87,0.00,,,0.01,18.000000,,2013-08-03 20:02:00,
2013-08-03 13:12:00,60.0,56.0,-100.00,SE,134,3.0,5.0,87,0.00,,,0.01,18.000000,,2013-08-03 20:12:00,
2013-08-03 13:22:00,60.0,56.0,-100.00,SE,134,3.0,5.0,87,0.00,,,0.01,18.000000,,2013-08-03 20:22:00,
2013-08-03 13:32:00,60.0,56.0,-100.00,SE,134,3.0,5.0,87,0.00,,,0.01,18.000000,,2013-08-03 20:32:00,
2013-08-03 14:02:00,63.0,56.0,-100.00,SE,141,2.0,4.0,79,0.00,,,0.00,16.000000,,2013-08-03 21:02:00,
2013-08-03 14:12:00,63.0,56.0,-100.00,SE,141,2.0,4.0,79,0.00,,,0.00,16.000000,,2013-08-03 21:12:00,
2013-08-03 14:22:00,63.0,56.0,-100.00,SE,141,2.0,4.0,79,0.00,,,0.00,16.000000,,2013-08-03 21:22:00,
2013-08-03 14:32:00,63.0,56.0,-100.00,SE,141,2.0,4.0,79,0.00,,,0.00,16.000000,,2013-08-03 21:32:00,
2013-08-03 15:02:00,69.0,58.0,-100.00,WSW,241,1.0,4.0,68,0.00,,,0.00,14.000000,,2013-08-03 22:02:00,
2013-08-03 15:12:00,69.0,58.0,-100.00,WSW,241,1.0,4.0,68,0.00,,,0.00,14.000000,,2013-08-03 22:12:00,
2013-08-03 15:22:00,69.0,58.0,-100.00,WSW,241,1.0,4.0,68,0.00,,,0.00,14.000000,,2013-08-03 22:22:00,
2013-08-03 15:32:00,69.0,58.0,-100.00,WSW,241,1.0,4.0,68,0.00,,,0.00,14.000000,,2013-08-03 22:32:00,
2013-08-03 16:02:00,69.0,58.0,-100.00,South,184,1.0,5.0,69,0.00,,,0.00,13.000000,,2013-08-03 23:02:00,
2013-08-03 16:12:00,69.0,58.0,-100.00,South,184,1.0,5.0,69,0.00,,,0.00,13.000000,,2013-08-03 23:12:00,
2013-08-03 16:22:00,69.0,58.0,-100.00,South,184,1.0,5.0,69,0.00,,,0.00,13.000000,,2013-08-03 23:22:00,
2013-08-03 16:32:00,69.0,58.0,-100.00,South,184,1.0,5.0,69,0.00,,,0.00,13.000000,,2013-08-03 23:32:00,
2013-08-03 17:02:00,71.0,57.0,-100.00,NNW,342,1.0,5.0,61,0.00,,,0.00,12.000000,,2013-08-04 00:02:00,
2013-08-03 17:12:00,71.0,57.0,-100.00,NNW,342,1.0,5.0,61,0.00,,,0.00,12.000000,,2013-08-04 00:12:00,
2013-08-03 17:22:00,71.0,57.0,-100.00,NNW,342,1.0,5.0,61,0.00,,,0.00,12.000000,,2013-08-04 00:22:00,
2013-08-03 17:32:00,71.0,57.0,-100.00,NNW,342,1.0,5.0,61,0.00,,,0.00,12.000000,,2013-08-04 00:32:00,
2013-08-03 18:02:00,70.0,57.0,-100.00,South,176,1.0,4.0,63,0.00,,,0.00,12.000000,,2013-08-04 01:02:00,
2013-08-03 18:12:00,70.0,57.0,-100.00,South,176,1.0,4.0,63,0.00,,,0.00,12.000000,,2013-08-04 01:12:00,
2013-08-03 18:22:00,70.0,57.0,-100.00,South,176,1.0,4.0,63,0.00,,,0.00,12.000000,,2013-08-04 01:22:00,
2013-08-03 18:32:00,70.0,57.0,-100.00,South,176,1.0,4.0,63,0.00,,,0.00,12.000000,,2013-08-04 01:32:00,
2013-08-03 19:02:00,66.0,56.0,-100.00,South,183,0.0,4.0,71,0.00,,,0.00,13.000000,,2013-08-04 02:02:00,
2013-08-03 19:12:00,66.0,56.0,-100.00,South,183,0.0,4.0,71,0.00,,,0.00,13.000000,,2013-08-04 02:12:00,
2013-08-03 19:22:00,66.0,56.0,-100.00,South,183,0.0,4.0,71,0.00,,,0.00,13.000000,,2013-08-04 02:22:00,
2013-08-03 19:32:00,66.0,56.0,-100.00,South,183,0.0,4.0,71,0.00,,,0.00,13.000000,,2013-08-04 02:32:00,
2013-08-03 20:02:00,64.0,57.0,-100.00,South,177,0.0,3.0,78,0.00,,,0.00,14.000000,,2013-08-04 03:02:00,
2013-08-03 20:11:00,64.0,57.0,-100.00,South,177,0.0,3.0,78,0.00,,,0.00,14.000000,,2013-08-04 03:11:00,
2013-08-03 20:21:00,64.0,57.0,-100.00,South,177,0.0,3.0,78,0.00,,,0.00,14.000000,,2013-08-04 03:21:00,
2013-08-03 20:32:00,64.0,57.0,-100.00,South,177,0.0,3.0,78,0.00,,,0.00,14.000000,,2013-08-04 03:32:00,
2013-08-03 21:02:00,62.0,57.0,-100.00,South,174,0.0,1.0,84,0.00,,,0.00,15.000000,,2013-08-04 04:02:00,
2013-08-03 21:11:00,62.0,57.0,-100.00,South,174,0.0,1.0,84,0.00,,,0.00,15.000000,,2013-08-04 04:11:00,
2013-08-03 21:22:00,62.0,57.0,-100.00,South,174,0.0,1.0,84,0.00,,,0.00,15.000000,,2013-08-04 04:22:00,
2013-08-03 21:32:00,62.0,57.0,-100.00,South,174,0.0,1.0,84,0.00,,,0.00,15.000000,,2013-08-04 04:32:00,
2013-08-03 22:02:00,59.0,56.0,-100.00,North,3,0.0,1.0,90,0.00,,,0.00,15.000000,,2013-08-04 05:02:00,
2013-08-03 22:12:00,59.0,56.0,-100.00,North,3,0.0,1.0,90,0.00,,,0.00,15.000000,,2013-08-04 05:12:00,
2013-08-03 22:22:00,59.0,56.0,-100.00,North,3,0.0,1.0,90,0.00,,,0.00,15.000000,,2013-08-04 05:22:00,
2013-08-03 22:32:00,59.0,56.0,-100.00,North,3,0.0,1.0,90,0.00,,,0.00,15.000000,,2013-08-04 05:32:00,
2013-08-03 23:01:00,57.0,55.0,-100.00,North,0,0.0,0.0,94,0.00,,,0.00,16.000000,,2013-08-04 06:01:00,
2013-08-03 23:12:00,57.0,55.0,-100.00,North,0,0.0,0.0,94,0.00,,,0.00,16.000000,,2013-08-04 06:12:00,
2013-08-03 23:22:00,57.0,55.0,-100.00,North,0,0.0,0.0,94,0.00,,,0.00,16.000000,,2013-08-04 06:22:00,
2013-08-03 23:32:00,57.0,55.0,-100.00,North,0,0.0,0.0,94,0.00,,,0.00,16.000000,,2013-08-04 06:32:00,